createdAt,value
2023-10-27T00:04:23.237Z,12.20
2023-10-27T00:09:26.473Z,12.28
2023-10-27T00:14:28.846Z,12.31
2023-10-27T00:19:30.804Z,12.38
2023-10-27T00:24:33.042Z,12.39
2023-10-27T00:29:35.313Z,12.41
2023-10-27T00:34:37.172Z,12.46
2023-10-27T00:39:42.934Z,12.51
2023-10-27T00:44:44.847Z,12.54
2023-10-27T00:49:47.274Z,12.52
2023-10-27T00:54:52.195Z,12.53
2023-10-27T00:59:54.316Z,12.50
2023-10-27T01:04:56.523Z,12.43
2023-10-27T01:09:58.339Z,12.36
2023-10-27T01:15:00.269Z,12.22
2023-10-27T01:20:03.018Z,12.11
2023-10-27T01:25:05.943Z,12.09
2023-10-27T01:30:09.800Z,11.96
2023-10-27T01:35:11.989Z,11.97
2023-10-27T01:40:13.927Z,12.00
2023-10-27T01:45:16.935Z,11.92
2023-10-27T01:50:19.168Z,11.95
2023-10-27T01:55:21.356Z,12.00
2023-10-27T02:00:23.530Z,12.01
2023-10-27T02:05:25.316Z,11.93
2023-10-27T02:10:27.281Z,11.91
2023-10-27T02:15:29.227Z,11.88
2023-10-27T02:20:31.686Z,11.89
2023-10-27T02:25:33.574Z,11.90
2023-10-27T02:30:37.002Z,11.79
2023-10-27T02:35:38.749Z,11.64
2023-10-27T02:40:42.076Z,11.54
2023-10-27T02:45:43.975Z,11.50
2023-10-27T02:50:45.745Z,11.37
2023-10-27T02:55:47.999Z,11.37
2023-10-27T03:00:49.746Z,11.43
2023-10-27T03:05:51.562Z,11.52
2023-10-27T03:10:53.365Z,11.53
2023-10-27T03:15:55.230Z,11.52
2023-10-27T03:20:58.486Z,11.47
2023-10-27T03:26:00.368Z,11.41
2023-10-27T03:31:02.720Z,11.30
2023-10-27T03:36:05.739Z,11.21
2023-10-27T03:41:09.681Z,11.19
2023-10-27T03:46:11.904Z,11.32
2023-10-27T03:51:14.135Z,11.41
2023-10-27T03:56:16.268Z,11.47
2023-10-27T04:01:18.504Z,11.55
2023-10-27T04:06:21.524Z,11.58
2023-10-27T04:11:23.412Z,11.57
2023-10-27T04:16:44.935Z,11.60
2023-10-27T04:21:46.702Z,11.62
2023-10-27T04:26:48.463Z,11.65
2023-10-27T04:31:50.313Z,11.57
2023-10-27T04:36:52.259Z,11.51
2023-10-27T04:41:54.248Z,11.50
2023-10-27T04:46:56.032Z,11.55
2023-10-27T04:51:57.822Z,11.55
2023-10-27T04:56:59.617Z,11.53
2023-10-27T05:02:01.410Z,11.54
2023-10-27T05:07:04.599Z,11.59
2023-10-27T05:12:06.795Z,11.61
2023-10-27T05:17:09.351Z,11.62
2023-10-27T05:22:11.487Z,11.63
2023-10-27T05:27:13.236Z,11.60
2023-10-27T05:32:16.607Z,11.59
2023-10-27T05:37:18.569Z,11.56
2023-10-27T05:42:20.411Z,11.57
2023-10-27T05:47:22.371Z,11.89
2023-10-27T05:52:24.185Z,12.15
2023-10-27T05:57:26.345Z,12.13
2023-10-27T06:02:28.613Z,12.27
2023-10-27T06:07:30.452Z,12.40
2023-10-27T06:12:34.842Z,12.24
2023-10-27T06:17:37.201Z,12.29
2023-10-27T06:22:39.423Z,12.41
2023-10-27T06:27:41.241Z,12.49
2023-10-27T06:32:43.111Z,12.55
2023-10-27T06:37:45.588Z,12.58
2023-10-27T06:42:47.730Z,12.59
2023-10-27T06:47:49.689Z,12.63
2023-10-27T06:52:51.545Z,12.57
2023-10-27T06:57:53.419Z,12.57
2023-10-27T07:02:57.405Z,12.58
2023-10-27T07:07:59.962Z,12.61
2023-10-27T07:13:01.846Z,12.64
2023-10-27T07:18:03.726Z,12.69
2023-10-27T07:23:05.531Z,12.72
2023-10-27T07:28:07.619Z,12.74
2023-10-27T07:33:11.286Z,12.76
2023-10-27T07:38:13.030Z,12.75
2023-10-27T07:43:14.834Z,12.76
2023-10-27T07:48:16.905Z,12.69
2023-10-27T07:53:18.732Z,12.65
2023-10-27T07:58:25.975Z,12.66
2023-10-27T08:03:29.705Z,12.68
2023-10-27T08:08:31.743Z,12.68
2023-10-27T08:13:34.069Z,12.68
2023-10-27T08:18:36.664Z,12.72
2023-10-27T08:23:38.588Z,12.44
2023-10-27T08:28:40.464Z,12.36
2023-10-27T08:33:42.457Z,12.32
2023-10-27T08:38:44.309Z,12.25
2023-10-27T08:43:46.537Z,12.15
2023-10-27T08:48:48.680Z,12.04
2023-10-27T08:53:52.974Z,11.89
2023-10-27T08:58:54.766Z,11.96
2023-10-27T09:04:13.201Z,12.14
2023-10-27T09:09:16.038Z,12.24
2023-10-27T09:14:21.640Z,12.39
2023-10-27T09:19:28.438Z,12.53
2023-10-27T09:24:30.987Z,12.68
2023-10-27T09:29:43.808Z,12.73
2023-10-27T09:34:45.992Z,12.72
2023-10-27T09:39:47.873Z,12.73
2023-10-27T09:45:07.893Z,12.82
2023-10-27T09:50:14.512Z,12.89
2023-10-27T09:55:19.935Z,12.83
2023-10-27T10:00:33.256Z,12.85
2023-10-27T10:06:13.405Z,12.81
2023-10-27T10:11:17.524Z,12.74
2023-10-27T10:16:21.740Z,12.69
2023-10-27T10:21:39.877Z,12.74
2023-10-27T10:27:05.715Z,12.75
2023-10-27T10:32:31.024Z,12.78
2023-10-27T10:37:33.150Z,12.82
2023-10-27T10:43:13.592Z,12.89
2023-10-27T10:48:15.850Z,12.92
2023-10-27T10:53:20.808Z,12.87
2023-10-27T10:58:31.785Z,12.86
2023-10-27T11:03:37.409Z,12.85
2023-10-27T11:08:40.142Z,12.85
2023-10-27T11:13:45.163Z,12.90
2023-10-27T11:18:49.190Z,13.00
2023-10-27T11:23:52.281Z,13.12
2023-10-27T11:28:59.570Z,13.40
2023-10-27T11:34:13.105Z,13.52
2023-10-27T11:39:14.912Z,13.58
2023-10-27T11:44:17.899Z,13.57
2023-10-27T11:49:19.745Z,13.44
2023-10-27T11:54:25.054Z,13.19
2023-10-27T11:59:27.032Z,13.02
2023-10-27T12:04:29.292Z,12.86
2023-10-27T12:09:31.258Z,12.91
2023-10-27T12:14:33.031Z,12.97
2023-10-27T12:19:35.220Z,13.00
2023-10-27T12:24:37.073Z,13.01
2023-10-27T12:29:38.904Z,13.05
2023-10-27T12:34:41.885Z,13.07
2023-10-27T12:39:43.928Z,13.14
2023-10-27T12:44:46.563Z,13.15
2023-10-27T12:49:49.732Z,13.19
2023-10-27T12:54:51.654Z,13.26
2023-10-27T12:59:54.589Z,13.19
2023-10-27T13:04:57.966Z,13.32
2023-10-27T13:10:00.283Z,13.63
2023-10-27T13:15:02.831Z,13.68
2023-10-27T13:20:06.434Z,13.60
2023-10-27T13:25:08.646Z,13.52
2023-10-27T13:30:10.597Z,13.51
2023-10-27T13:35:13.108Z,13.53
2023-10-27T13:40:15.805Z,13.52
2023-10-27T13:45:17.781Z,13.47
2023-10-27T13:50:19.575Z,13.52
2023-10-27T13:55:23.450Z,13.52
2023-10-27T14:00:28.490Z,13.61
2023-10-27T14:05:31.170Z,13.70
2023-10-27T14:10:33.296Z,13.77
2023-10-27T14:15:36.098Z,13.82
2023-10-27T14:20:37.966Z,13.87
2023-10-27T14:25:39.966Z,13.84
2023-10-27T14:30:42.948Z,13.82
2023-10-27T14:35:44.820Z,13.73
2023-10-27T14:40:53.760Z,13.71
2023-10-27T14:46:00.166Z,13.77
2023-10-27T14:51:04.170Z,13.86
2023-10-27T14:56:08.546Z,14.01
2023-10-27T15:01:12.331Z,14.02
2023-10-27T15:06:14.338Z,14.02
2023-10-27T15:11:16.144Z,13.89
2023-10-27T15:16:18.325Z,13.74
2023-10-27T15:21:20.261Z,13.69
2023-10-27T15:26:25.392Z,13.58
2023-10-27T15:31:28.493Z,13.50
2023-10-27T15:36:32.590Z,13.48
2023-10-27T15:41:36.252Z,13.43
2023-10-27T15:46:39.403Z,13.36
2023-10-27T15:51:41.405Z,13.34
2023-10-27T15:56:43.226Z,13.25
2023-10-27T16:01:45.202Z,13.18
2023-10-27T16:06:47.477Z,13.10
2023-10-27T16:11:49.411Z,13.15
2023-10-27T16:16:51.166Z,13.15
2023-10-27T16:21:53.047Z,13.11
2023-10-27T16:26:57.865Z,13.16
2023-10-27T16:31:59.618Z,13.23
2023-10-27T16:37:01.735Z,13.32
2023-10-27T16:42:06.454Z,13.31
2023-10-27T16:47:08.254Z,13.27
2023-10-27T16:52:10.469Z,13.22
2023-10-27T16:57:14.651Z,13.23
2023-10-27T17:02:17.059Z,13.24
2023-10-27T17:07:19.399Z,13.21
2023-10-27T17:12:21.650Z,13.22
2023-10-27T17:17:24.082Z,13.23
2023-10-27T17:22:26.032Z,13.18
2023-10-27T17:27:27.896Z,13.12
2023-10-27T17:32:30.231Z,13.09
2023-10-27T17:37:32.383Z,13.06
2023-10-27T17:42:34.564Z,13.06
2023-10-27T17:47:36.630Z,13.01
2023-10-27T17:52:38.690Z,13.06
2023-10-27T17:57:46.924Z,13.05
2023-10-27T18:02:49.334Z,13.03
2023-10-27T18:07:54.695Z,13.02
2023-10-27T18:12:57.612Z,13.02
2023-10-27T18:17:59.710Z,13.00
2023-10-27T18:23:02.408Z,12.97
2023-10-27T18:28:05.436Z,12.92
2023-10-27T18:33:10.052Z,12.93
2023-10-27T18:38:14.147Z,12.98
2023-10-27T18:43:15.866Z,13.02
2023-10-27T18:48:17.640Z,13.02
2023-10-27T18:53:19.520Z,13.03
2023-10-27T18:58:21.706Z,13.07
2023-10-27T19:03:30.723Z,13.05
2023-10-27T19:08:34.070Z,13.00
2023-10-27T19:13:36.556Z,13.00
2023-10-27T19:18:40.117Z,12.95
2023-10-27T19:23:45.286Z,12.93
2023-10-27T19:28:52.635Z,12.95
2023-10-27T19:33:56.414Z,12.89
2023-10-27T19:38:58.553Z,12.85
2023-10-27T19:44:00.624Z,12.82
2023-10-27T19:49:02.887Z,12.75
2023-10-27T19:54:05.740Z,12.75
2023-10-27T19:59:07.665Z,12.76
2023-10-27T20:04:11.769Z,12.75
2023-10-27T20:09:13.682Z,12.72
2023-10-27T20:14:16.787Z,12.75
2023-10-27T20:19:19.324Z,12.70
2023-10-27T20:24:22.030Z,12.58
2023-10-27T20:29:24.676Z,12.39
2023-10-27T20:34:26.688Z,12.14
2023-10-27T20:39:29.270Z,12.07
2023-10-27T20:44:31.092Z,12.12
2023-10-27T20:49:33.431Z,12.13
2023-10-27T20:54:35.197Z,12.13
2023-10-27T20:59:36.983Z,11.77
2023-10-27T21:04:39.054Z,11.18
2023-10-27T21:09:40.900Z,10.92
2023-10-27T21:14:42.897Z,10.78
2023-10-27T21:19:45.356Z,11.04
2023-10-27T21:24:47.781Z,10.93
2023-10-27T21:29:50.385Z,10.85
2023-10-27T21:34:52.235Z,10.93
2023-10-27T21:39:54.196Z,11.05
2023-10-27T21:44:56.163Z,10.93
2023-10-27T21:49:57.914Z,10.72
2023-10-27T21:54:59.819Z,10.60
2023-10-27T22:00:01.829Z,10.10
2023-10-27T22:05:03.889Z,9.78
2023-10-27T22:10:06.326Z,9.79
2023-10-27T22:15:09.967Z,9.54
2023-10-27T22:20:13.346Z,9.27
2023-10-27T22:25:15.429Z,9.19
2023-10-27T22:30:17.203Z,9.02
2023-10-27T22:35:19.199Z,9.14
2023-10-27T22:40:20.974Z,9.32
2023-10-27T22:45:23.900Z,9.35
2023-10-27T22:50:26.636Z,9.35
2023-10-27T22:55:28.544Z,9.33
2023-10-27T23:00:30.676Z,9.30
2023-10-27T23:05:36.679Z,9.20
2023-10-27T23:10:38.523Z,9.11
2023-10-27T23:15:40.461Z,9.11
2023-10-27T23:20:43.122Z,9.08
2023-10-27T23:25:46.142Z,8.98
2023-10-27T23:30:49.088Z,8.80
2023-10-27T23:35:56.983Z,8.85
2023-10-27T23:41:00.268Z,9.11
2023-10-27T23:46:03.144Z,9.26
2023-10-27T23:51:05.108Z,9.42
2023-10-27T23:56:07.181Z,9.77
